Time;durP1;ratioP1;P1;durP2;ratioP2;P2;SDS_P1;SDS_P2;PMS_P1;PMS_P2;Temp;Humidity;BMP_temperature;BMP_pressure;BME280_temperature;BME280_humidity;BME280_pressure;Samples;Min_cycle;Max_cycle;Signal;HPM_P1;HPM_P2
2023/10/18 00:01:04;;;;;;;19.67;13.60;;;7.50;99.90;;;;;;5069584;28;20835;-71
2023/10/18 00:03:32;;;;;;;18.60;14.33;;;7.40;99.90;;;;;;5069696;28;20497;-70
2023/10/18 00:05:59;;;;;;;18.10;13.80;;;7.20;99.90;;;;;;5067958;28;20462;-71
2023/10/18 00:08:25;;;;;;;18.07;14.10;;;7.00;99.90;;;;;;5069599;28;20416;-71
2023/10/18 00:10:53;;;;;;;22.87;15.50;;;6.90;99.90;;;;;;5067798;28;20431;-72
2023/10/18 00:13:22;;;;;;;23.43;14.83;;;6.70;99.90;;;;;;5069485;28;20425;-71
2023/10/18 00:15:52;;;;;;;23.50;15.10;;;6.60;99.90;;;;;;5067923;28;20433;-72
2023/10/18 00:18:21;;;;;;;19.20;14.20;;;6.50;99.90;;;;;;5068053;28;21300;-72
2023/10/18 00:20:47;;;;;;;23.87;15.50;;;6.50;99.90;;;;;;5069442;28;20427;-72
2023/10/18 00:23:14;;;;;;;22.20;15.40;;;6.40;99.90;;;;;;5069242;28;20490;-71
2023/10/18 00:25:39;;;;;;;22.53;15.33;;;6.40;99.90;;;;;;5069158;28;20415;-72
2023/10/18 00:28:08;;;;;;;24.67;16.53;;;6.40;99.90;;;;;;5067721;28;20803;-72
2023/10/18 00:30:35;;;;;;;24.80;16.17;;;6.40;99.90;;;;;;5067401;28;20240;-72
2023/10/18 00:33:01;;;;;;;24.03;16.60;;;6.30;99.90;;;;;;5068227;28;20417;-71
2023/10/18 00:35:33;;;;;;;28.97;16.23;;;6.30;99.90;;;;;;5069051;28;20473;-71
2023/10/18 00:37:58;;;;;;;21.20;14.77;;;6.20;99.90;;;;;;5068881;28;20415;-71
2023/10/18 00:43:07;;;;;;;23.10;15.77;;;6.10;99.90;;;;;;5067990;28;20912;-71
2023/10/18 00:45:37;;;;;;;23.17;15.90;;;6.10;99.90;;;;;;5069187;28;20414;-72
2023/10/18 00:48:06;;;;;;;21.50;15.13;;;6.00;99.90;;;;;;5067858;28;20426;-71
2023/10/18 00:50:34;;;;;;;21.13;15.70;;;5.90;99.90;;;;;;5068103;28;20421;-71
2023/10/18 00:53:00;;;;;;;24.97;15.97;;;5.90;99.90;;;;;;5069658;28;20799;-71
2023/10/18 00:55:26;;;;;;;22.87;16.13;;;5.80;99.90;;;;;;5069421;28;20854;-71
2023/10/18 00:57:52;;;;;;;23.67;15.70;;;5.70;99.90;;;;;;5069183;28;20445;-71
2023/10/18 01:00:24;;;;;;;26.03;15.70;;;5.70;99.90;;;;;;5069140;28;20864;-73
2023/10/18 01:02:53;;;;;;;26.77;16.17;;;5.60;99.90;;;;;;5069234;28;20740;-72
2023/10/18 01:05:19;;;;;;;21.53;16.20;;;5.50;99.90;;;;;;5051513;28;20437;-71
2023/10/18 01:07:47;;;;;;;24.50;16.53;;;5.50;99.90;;;;;;5068932;28;20527;-71
2023/10/18 01:10:12;;;;;;;24.57;16.30;;;5.50;99.90;;;;;;5068910;28;20426;-71
2023/10/18 01:12:38;;;;;;;23.03;16.33;;;5.40;99.90;;;;;;5069160;28;20452;-72
2023/10/18 01:15:09;;;;;;;30.60;16.73;;;5.40;99.90;;;;;;5068564;28;20183;-72
2023/10/18 01:17:37;;;;;;;22.43;15.00;;;5.40;99.90;;;;;;5068418;28;20200;-72
2023/10/18 01:20:33;;;;;;;22.13;16.43;;;5.40;99.90;;;;;;5066939;28;21009;-72
2023/10/18 01:22:55;;;;;;;22.33;14.70;;;5.40;99.90;;;;;;5068308;28;20434;-71
2023/10/18 01:25:20;;;;;;;23.13;16.63;;;5.30;99.90;;;;;;5067289;28;20882;-71
2023/10/18 01:27:46;;;;;;;28.43;17.17;;;5.40;99.90;;;;;;5068373;28;20480;-71
2023/10/18 01:30:16;;;;;;;34.20;20.93;;;5.30;99.90;;;;;;5066937;28;20190;-72
2023/10/18 01:32:42;;;;;;;25.67;16.20;;;5.20;99.90;;;;;;5068466;28;20189;-71
2023/10/18 01:35:11;;;;;;;22.83;15.37;;;5.20;99.90;;;;;;5068291;28;20501;-71
2023/10/18 01:37:39;;;;;;;22.13;15.83;;;5.20;99.90;;;;;;5050533;28;20830;-71
2023/10/18 01:42:56;;;;;;;21.90;14.87;;;5.20;99.90;;;;;;5068531;28;20508;-71
2023/10/18 01:45:23;;;;;;;23.87;15.53;;;5.20;99.90;;;;;;5072187;28;20982;-71
2023/10/18 01:47:50;;;;;;;33.17;15.97;;;5.20;99.90;;;;;;5072004;28;20448;-71
2023/10/18 01:50:18;;;;;;;24.50;15.77;;;5.10;99.90;;;;;;5072112;28;20421;-71
2023/10/18 01:52:44;;;;;;;25.73;14.80;;;5.10;99.90;;;;;;5072117;28;20430;-71
2023/10/18 01:55:12;;;;;;;25.30;17.13;;;5.00;99.90;;;;;;5070488;28;20421;-71
2023/10/18 01:57:39;;;;;;;26.60;16.60;;;4.80;99.90;;;;;;5072021;28;20445;-71
2023/10/18 02:00:05;;;;;;;22.80;15.00;;;4.60;99.90;;;;;;5070209;28;21136;-71
2023/10/18 02:02:34;;;;;;;22.23;15.70;;;4.60;99.90;;;;;;5070397;28;20445;-71
2023/10/18 02:04:59;;;;;;;33.90;16.07;;;4.70;99.90;;;;;;5071649;28;20902;-71
2023/10/18 02:07:25;;;;;;;21.63;15.20;;;4.70;99.90;;;;;;5072042;28;20440;-72
2023/10/18 02:09:57;;;;;;;23.83;16.40;;;4.80;99.90;;;;;;5070451;28;20998;-71
2023/10/18 02:12:23;;;;;;;23.13;15.63;;;4.80;99.90;;;;;;5071905;28;20404;-72
2023/10/18 02:14:49;;;;;;;28.10;16.43;;;4.80;99.90;;;;;;5071534;28;21294;-72
2023/10/18 02:17:18;;;;;;;24.53;16.07;;;4.80;99.90;;;;;;5070289;28;20856;-72
2023/10/18 02:19:44;;;;;;;22.73;14.70;;;4.80;99.90;;;;;;5070008;28;20567;-71
2023/10/18 02:22:14;;;;;;;23.13;15.20;;;4.80;99.90;;;;;;5071522;28;20414;-71
2023/10/18 02:24:42;;;;;;;22.47;14.97;;;4.80;99.90;;;;;;5071382;28;20421;-72
2023/10/18 02:27:09;;;;;;;22.30;15.10;;;4.70;99.90;;;;;;5071344;28;20464;-72
2023/10/18 02:29:35;;;;;;;24.10;14.93;;;4.70;99.90;;;;;;5069994;28;20425;-71
2023/10/18 02:32:04;;;;;;;21.30;14.27;;;4.50;99.90;;;;;;5071365;28;20429;-71
2023/10/18 02:34:33;;;;;;;22.90;14.90;;;4.30;99.90;;;;;;5069710;28;20429;-72
2023/10/18 02:37:04;;;;;;;26.33;16.43;;;4.30;99.90;;;;;;5069947;28;21170;-71
2023/10/18 02:39:33;;;;;;;28.60;17.00;;;4.40;99.90;;;;;;5053726;28;20469;-71
2023/10/18 02:42:00;;;;;;;28.27;16.83;;;4.40;99.90;;;;;;5070102;28;20881;-70
2023/10/18 02:44:29;;;;;;;28.80;17.00;;;4.50;99.90;;;;;;5069624;28;20421;-71
2023/10/18 02:47:03;;;;;;;24.90;18.10;;;4.60;99.90;;;;;;5069759;28;20523;-71
2023/10/18 02:49:29;;;;;;;21.57;14.93;;;4.80;99.90;;;;;;5069860;28;20953;-71
2023/10/18 02:51:57;;;;;;;32.63;17.10;;;4.90;99.90;;;;;;5071079;28;20418;-71
2023/10/18 02:54:24;;;;;;;23.97;16.53;;;4.90;99.90;;;;;;5068576;28;20187;-71
2023/10/18 02:56:50;;;;;;;22.70;15.83;;;4.90;99.90;;;;;;5070552;28;20532;-71
2023/10/18 02:59:27;;;;;;;22.67;15.00;;;5.00;99.90;;;;;;5069408;28;20602;-71
2023/10/18 03:01:57;;;;;;;24.27;15.27;;;5.00;99.90;;;;;;5069330;28;21072;-70
2023/10/18 03:04:28;;;;;;;28.17;15.20;;;5.00;99.90;;;;;;5069176;28;20429;-70
2023/10/18 03:06:54;;;;;;;26.80;15.83;;;5.00;99.90;;;;;;5070644;28;20819;-71
2023/10/18 03:09:53;;;;;;;25.17;15.70;;;4.90;99.90;;;;;;5070692;28;20420;-71
2023/10/18 03:12:15;;;;;;;20.63;15.23;;;4.90;99.90;;;;;;5066448;28;20434;-71
2023/10/18 03:14:53;;;;;;;19.77;14.93;;;4.90;99.90;;;;;;5070458;28;20426;-71
2023/10/18 03:17:22;;;;;;;22.07;15.33;;;4.90;99.90;;;;;;5053704;28;20449;-71
2023/10/18 03:19:50;;;;;;;21.03;13.80;;;4.90;99.90;;;;;;5070285;28;20477;-71
2023/10/18 03:22:19;;;;;;;22.77;15.60;;;4.90;99.90;;;;;;5068708;28;20421;-71
2023/10/18 03:24:54;;;;;;;23.00;13.60;;;5.00;99.90;;;;;;5070405;28;20416;-71
2023/10/18 03:27:20;;;;;;;19.30;14.37;;;4.80;99.90;;;;;;5068946;28;20486;-72
2023/10/18 03:29:46;;;;;;;20.93;14.30;;;4.80;99.90;;;;;;5070155;28;20516;-72
2023/10/18 03:32:15;;;;;;;23.00;15.00;;;4.70;99.90;;;;;;5070261;28;20519;-71
2023/10/18 03:34:43;;;;;;;24.40;15.03;;;4.70;99.90;;;;;;5068843;28;20191;-71
2023/10/18 03:37:18;;;;;;;24.23;15.70;;;4.70;99.90;;;;;;5068618;28;20552;-71
2023/10/18 03:39:47;;;;;;;20.07;13.57;;;4.70;99.90;;;;;;5070116;28;20461;-71
2023/10/18 03:42:26;;;;;;;19.23;13.57;;;4.70;99.90;;;;;;5070188;28;20504;-71
2023/10/18 03:44:52;;;;;;;21.90;14.20;;;4.70;99.90;;;;;;5070161;28;20413;-71
2023/10/18 03:47:24;;;;;;;21.37;14.40;;;4.60;99.90;;;;;;5069858;28;20445;-71
2023/10/18 03:49:53;;;;;;;18.90;13.30;;;4.70;99.90;;;;;;5069884;28;20188;-71
2023/10/18 03:52:19;;;;;;;18.63;13.53;;;4.60;99.90;;;;;;5069744;28;20470;-72
2023/10/18 03:55:04;;;;;;;21.73;13.53;;;4.70;99.90;;;;;;5069808;28;20436;-71
2023/10/18 03:57:37;;;;;;;21.40;14.10;;;4.70;99.90;;;;;;5068082;28;20219;-71
2023/10/18 04:00:28;;;;;;;19.77;13.50;;;4.60;99.90;;;;;;5069720;28;20550;-71
2023/10/18 04:02:56;;;;;;;23.30;15.17;;;4.60;99.90;;;;;;5069213;28;20461;-71
2023/10/18 04:05:35;;;;;;;18.90;13.63;;;4.60;99.90;;;;;;5069685;28;20528;-72
2023/10/18 04:08:02;;;;;;;24.40;14.17;;;4.60;99.90;;;;;;5069597;28;20414;-72
2023/10/18 04:10:31;;;;;;;23.60;13.83;;;4.50;99.90;;;;;;5067852;28;20432;-72
2023/10/18 04:12:57;;;;;;;23.43;15.20;;;4.50;99.90;;;;;;5069382;28;21036;-71
2023/10/18 04:15:29;;;;;;;23.93;15.57;;;4.50;99.90;;;;;;5067822;28;20449;-72
2023/10/18 04:20:37;;;;;;;21.17;14.50;;;4.50;99.90;;;;;;5069267;28;20477;-72
2023/10/18 04:23:12;;;;;;;21.57;14.73;;;4.50;99.90;;;;;;5066395;28;20422;-72
2023/10/18 04:25:40;;;;;;;25.93;15.70;;;4.50;99.90;;;;;;5066147;28;20496;-72
2023/10/18 04:28:06;;;;;;;28.73;17.60;;;4.60;99.90;;;;;;5067630;28;20977;-71
2023/10/18 04:30:32;;;;;;;30.20;17.80;;;4.60;99.90;;;;;;5066090;28;20429;-72
2023/10/18 04:33:00;;;;;;;28.90;17.03;;;4.70;99.90;;;;;;5067614;28;20584;-71
2023/10/18 04:35:29;;;;;;;27.90;16.67;;;4.70;99.90;;;;;;5067695;28;20424;-71
2023/10/18 04:37:58;;;;;;;32.93;18.13;;;4.60;99.90;;;;;;5065734;28;20457;-72
2023/10/18 04:40:26;;;;;;;29.97;19.10;;;4.50;99.90;;;;;;5067425;28;20551;-71
2023/10/18 04:42:56;;;;;;;28.83;17.97;;;4.40;99.90;;;;;;5067406;28;20422;-72
2023/10/18 04:45:26;;;;;;;23.53;16.93;;;4.10;99.90;;;;;;5067460;28;20498;-71
2023/10/18 04:48:01;;;;;;;22.37;15.87;;;4.10;99.90;;;;;;5067325;28;20433;-72
2023/10/18 04:50:32;;;;;;;21.17;15.23;;;4.10;99.90;;;;;;5050451;28;20458;-72
2023/10/18 04:52:59;;;;;;;20.10;14.40;;;4.20;99.90;;;;;;5067179;28;20445;-71
2023/10/18 04:55:27;;;;;;;23.07;14.80;;;4.20;99.90;;;;;;5067269;28;21106;-72
2023/10/18 04:57:53;;;;;;;19.50;14.83;;;4.30;99.90;;;;;;5067182;28;20441;-70
2023/10/18 05:00:35;;;;;;;22.20;15.03;;;4.30;99.90;;;;;;5065448;28;20477;-73
2023/10/18 05:03:06;;;;;;;22.10;14.10;;;4.20;99.90;;;;;;5067072;28;20461;-73
2023/10/18 05:05:37;;;;;;;22.27;14.30;;;4.10;99.90;;;;;;5067235;28;20413;-72
2023/10/18 05:08:04;;;;;;;28.73;16.00;;;3.90;99.90;;;;;;5067263;28;21284;-72
2023/10/18 05:10:30;;;;;;;21.90;14.93;;;3.90;99.90;;;;;;5067429;28;20412;-71
2023/10/18 05:13:08;;;;;;;26.13;16.80;;;4.00;99.90;;;;;;5067337;28;20528;-71
2023/10/18 05:15:36;;;;;;;23.53;14.97;;;4.10;99.90;;;;;;5065859;28;20210;-72
2023/10/18 05:18:04;;;;;;;30.77;17.10;;;4.20;99.90;;;;;;5066549;28;20895;-71
2023/10/18 05:20:55;;;;;;;23.30;16.40;;;4.20;99.90;;;;;;5065637;28;20477;-71
2023/10/18 05:23:24;;;;;;;25.87;16.13;;;4.20;99.90;;;;;;5052022;28;20433;-73
2023/10/18 05:28:48;;;;;;;30.60;16.00;;;4.30;99.90;;;;;;5067566;28;20465;-72
2023/10/18 05:34:19;;;;;;;27.23;16.13;;;4.10;99.90;;;;;;5067643;28;20416;-73
2023/10/18 05:41:51;;;;;;;20.90;15.07;;;4.20;99.90;;;;;;5067374;28;20420;-72
2023/10/18 05:44:17;;;;;;;23.27;15.57;;;4.20;99.90;;;;;;5065812;28;20483;-72
2023/10/18 05:46:46;;;;;;;22.47;15.50;;;4.20;99.90;;;;;;5066951;28;20787;-72
2023/10/18 05:49:23;;;;;;;24.42;15.20;;;4.20;99.90;;;;;;5067130;28;20444;-72
2023/10/18 05:51:52;;;;;;;26.20;16.47;;;4.20;99.90;;;;;;5067219;28;20256;-72
2023/10/18 05:54:22;;;;;;;29.87;17.07;;;4.20;99.90;;;;;;5067146;28;20429;-73
2023/10/18 05:56:53;;;;;;;30.47;16.63;;;4.20;99.90;;;;;;5066965;28;20435;-72
2023/10/18 06:01:58;;;;;;;25.50;17.40;;;4.40;99.90;;;;;;5067078;28;20951;-72
2023/10/18 06:04:24;;;;;;;28.40;17.73;;;4.40;99.90;;;;;;5067236;28;20428;-72
2023/10/18 06:06:58;;;;;;;31.40;17.30;;;4.40;99.90;;;;;;5065656;28;20440;-72
2023/10/18 06:09:27;;;;;;;24.87;16.87;;;4.50;99.90;;;;;;5065987;28;20425;-72
2023/10/18 06:11:55;;;;;;;23.93;16.37;;;4.60;99.90;;;;;;5067212;28;20432;-72
2023/10/18 06:14:21;;;;;;;25.80;17.40;;;4.60;99.90;;;;;;5067342;28;20920;-74
2023/10/18 06:16:51;;;;;;;28.77;17.40;;;4.70;99.90;;;;;;5067350;28;20528;-71
2023/10/18 06:19:27;;;;;;;25.73;16.70;;;4.70;99.90;;;;;;5065826;28;20468;-73
2023/10/18 06:21:59;;;;;;;30.60;17.13;;;4.80;99.90;;;;;;5067363;28;20425;-73
2023/10/18 06:24:25;;;;;;;28.07;17.70;;;4.90;99.90;;;;;;5067462;28;20904;-72
2023/10/18 06:26:52;;;;;;;28.67;17.27;;;4.90;99.90;;;;;;5067019;28;20472;-72
2023/10/18 06:29:24;;;;;;;28.77;16.90;;;4.90;99.90;;;;;;5066883;28;20456;-72
2023/10/18 06:31:50;;;;;;;26.80;17.33;;;4.90;99.90;;;;;;5069239;28;20428;-73
2023/10/18 06:34:22;;;;;;;26.07;17.53;;;5.10;99.90;;;;;;5070486;28;20409;-72
2023/10/18 06:36:49;;;;;;;23.77;17.47;;;5.20;99.90;;;;;;5068626;28;20494;-72
2023/10/18 06:39:28;;;;;;;27.23;18.60;;;5.20;99.90;;;;;;5070018;28;20543;-73
2023/10/18 06:41:57;;;;;;;27.00;17.47;;;5.30;99.90;;;;;;5069952;28;20409;-72
2023/10/18 06:44:30;;;;;;;30.27;17.37;;;5.40;99.90;;;;;;5069893;28;20417;-74
2023/10/18 06:46:57;;;;;;;27.53;18.70;;;5.40;99.90;;;;;;5069915;28;20428;-72
2023/10/18 06:49:23;;;;;;;27.97;18.10;;;5.40;99.90;;;;;;5069824;28;20527;-72
2023/10/18 06:51:52;;;;;;;25.30;17.17;;;5.50;99.90;;;;;;5069978;28;21251;-72
2023/10/18 06:54:30;;;;;;;25.13;17.30;;;5.50;99.90;;;;;;5069778;28;20248;-72
2023/10/18 06:56:57;;;;;;;30.50;20.53;;;5.60;99.90;;;;;;5068180;28;21196;-72
2023/10/18 06:59:27;;;;;;;27.90;19.03;;;5.40;99.90;;;;;;5069709;28;20457;-73
2023/10/18 07:02:00;;;;;;;28.33;19.00;;;5.70;99.90;;;;;;5069683;28;20528;-73
2023/10/18 07:04:35;;;;;;;34.13;19.10;;;5.80;99.90;;;;;;5070088;28;20414;-73
2023/10/18 07:07:08;;;;;;;27.90;18.40;;;5.90;99.90;;;;;;5068948;28;20459;-73
2023/10/18 07:09:36;;;;;;;31.50;20.00;;;6.00;99.90;;;;;;5068436;28;20406;-72
2023/10/18 07:12:10;;;;;;;31.07;18.30;;;5.90;99.90;;;;;;5070036;28;20417;-72
2023/10/18 07:14:36;;;;;;;25.17;17.90;;;6.00;99.90;;;;;;5070117;28;20996;-72
2023/10/18 07:17:04;;;;;;;29.90;19.27;;;6.00;99.90;;;;;;5069469;28;20437;-72
2023/10/18 07:19:48;;;;;;;28.00;18.60;;;6.10;99.90;;;;;;5068298;28;20465;-72
2023/10/18 07:22:21;;;;;;;25.43;17.00;;;6.20;99.90;;;;;;5069402;28;20427;-72
2023/10/18 07:24:59;;;;;;;23.93;16.13;;;6.30;99.90;;;;;;5069616;28;20409;-72
2023/10/18 07:27:29;;;;;;;26.20;18.50;;;6.40;99.90;;;;;;5069517;28;20433;-72
2023/10/18 07:29:58;;;;;;;28.43;18.17;;;6.60;99.90;;;;;;5069477;28;20422;-72
2023/10/18 07:32:24;;;;;;;29.10;19.87;;;6.70;99.90;;;;;;5067837;28;20451;-73
2023/10/18 07:34:54;;;;;;;27.57;19.70;;;6.70;99.90;;;;;;5069609;28;20414;-73
2023/10/18 07:37:24;;;;;;;35.43;19.67;;;6.80;99.90;;;;;;5069550;28;20275;-72
2023/10/18 07:39:57;;;;;;;31.90;20.43;;;6.90;99.90;;;;;;5067928;28;20535;-72
2023/10/18 07:42:34;;;;;;;28.70;19.70;;;7.00;99.90;;;;;;5069222;28;20504;-71
2023/10/18 07:45:04;;;;;;;29.60;19.73;;;7.10;99.90;;;;;;5069541;28;20502;-73
2023/10/18 07:47:37;;;;;;;30.13;20.13;;;7.20;99.90;;;;;;5068270;28;20472;-71
2023/10/18 07:52:57;;;;;;;28.33;21.00;;;7.50;99.90;;;;;;5069743;28;20470;-72
2023/10/18 07:55:23;;;;;;;26.80;18.80;;;7.70;99.90;;;;;;5069567;28;20930;-73
2023/10/18 07:57:49;;;;;;;27.33;19.00;;;7.80;99.90;;;;;;5069619;28;20445;-73
2023/10/18 08:00:21;;;;;;;27.00;18.60;;;8.00;99.90;;;;;;5069762;28;20465;-72
2023/10/18 08:02:50;;;;;;;25.43;18.70;;;8.10;99.90;;;;;;5069797;28;20434;-72
2023/10/18 08:05:19;;;;;;;25.37;18.13;;;8.10;99.90;;;;;;5069381;28;20428;-72
2023/10/18 08:07:49;;;;;;;28.63;18.00;;;8.40;99.90;;;;;;5069125;28;20983;-72
2023/10/18 08:10:19;;;;;;;23.73;15.47;;;8.60;99.90;;;;;;5068920;28;20449;-73
2023/10/18 08:12:48;;;;;;;24.43;16.27;;;8.80;99.90;;;;;;5067666;28;20422;-72
2023/10/18 08:15:16;;;;;;;24.80;15.77;;;9.00;99.90;;;;;;5068766;28;21292;-70
2023/10/18 08:23:18;;;;;;;21.40;14.87;;;9.60;99.90;;;;;;4996115;28;20186;-70
2023/10/18 08:25:50;;;;;;;21.53;14.77;;;9.70;99.90;;;;;;5067225;28;20411;-72
2023/10/18 08:28:16;;;;;;;22.60;15.47;;;9.90;99.90;;;;;;5066984;28;20800;-71
2023/10/18 08:33:07;;;;;;;18.90;14.63;;;10.00;99.90;;;;;;5068040;28;20184;-72
2023/10/18 08:35:36;;;;;;;20.83;15.70;;;9.90;99.90;;;;;;5067755;28;20681;-72
2023/10/18 08:38:01;;;;;;;21.33;14.87;;;9.90;99.90;;;;;;5067511;28;20512;-72
2023/10/18 08:43:28;;;;;;;19.57;14.37;;;10.10;99.90;;;;;;5066468;28;20436;-72
2023/10/18 08:45:55;;;;;;;20.90;14.17;;;10.40;99.90;;;;;;5067420;28;21371;-72
2023/10/18 08:48:28;;;;;;;17.80;14.20;;;10.40;99.90;;;;;;5067595;28;20451;-72
2023/10/18 08:50:56;;;;;;;23.73;13.53;;;10.90;99.90;;;;;;5067282;28;20430;-71
2023/10/18 08:53:26;;;;;;;19.07;13.60;;;11.80;99.90;;;;;;5067450;28;20511;-73
2023/10/18 08:55:56;;;;;;;17.97;11.90;;;12.40;99.90;;;;;;5065702;28;20938;-71
2023/10/18 08:58:22;;;;;;;14.40;11.53;;;13.00;99.90;;;;;;5067268;28;20421;-72
2023/10/18 09:03:23;;;;;;;22.53;13.20;;;13.90;99.90;;;;;;5067358;28;20719;-71
2023/10/18 09:05:52;;;;;;;15.50;12.43;;;13.80;99.90;;;;;;5067282;28;20508;-70
2023/10/18 09:08:19;;;;;;;15.17;12.00;;;13.70;99.90;;;;;;5049416;28;20527;-71
2023/10/18 09:10:54;;;;;;;26.50;12.37;;;13.40;99.90;;;;;;5067320;28;20417;-71
2023/10/18 09:18:25;;;;;;;17.37;11.53;;;14.90;99.90;;;;;;5067356;28;21238;-70
2023/10/18 09:20:55;;;;;;;14.13;12.47;;;15.20;99.90;;;;;;5066946;28;20543;-71
2023/10/18 09:23:24;;;;;;;15.60;11.77;;;14.70;99.90;;;;;;5065438;28;20425;-70
2023/10/18 09:26:18;;;;;;;18.40;12.17;;;14.50;99.90;;;;;;5067064;28;20509;-71
2023/10/18 09:28:41;;;;;;;16.37;12.17;;;14.30;99.90;;;;;;5066297;28;20434;-71
2023/10/18 09:31:14;;;;;;;16.67;12.20;;;14.30;99.90;;;;;;5065503;28;20528;-71
2023/10/18 09:33:48;;;;;;;18.63;13.40;;;14.30;99.90;;;;;;5067092;28;20420;-72
2023/10/18 09:36:29;;;;;;;14.97;11.73;;;14.40;99.90;;;;;;5066829;28;20444;-71
2023/10/18 09:38:56;;;;;;;14.87;11.53;;;14.90;99.90;;;;;;5065661;28;20461;-72
2023/10/18 09:41:22;;;;;;;19.40;12.20;;;15.10;99.90;;;;;;5065534;28;20542;-72
2023/10/18 09:43:48;;;;;;;19.47;13.50;;;14.80;99.90;;;;;;5067021;28;20414;-72
2023/10/18 09:46:15;;;;;;;17.13;12.50;;;14.60;99.90;;;;;;5066974;28;20481;-72
2023/10/18 09:48:46;;;;;;;16.47;12.83;;;15.20;99.90;;;;;;5065375;28;20436;-71
2023/10/18 09:51:16;;;;;;;16.00;12.60;;;15.20;99.90;;;;;;5066897;28;20425;-71
2023/10/18 09:53:52;;;;;;;15.30;11.37;;;15.20;99.90;;;;;;5066432;28;20923;-72
2023/10/18 09:56:24;;;;;;;15.90;12.50;;;15.10;99.90;;;;;;5064976;28;20449;-72
2023/10/18 09:58:51;;;;;;;16.03;12.83;;;14.80;99.90;;;;;;5066541;28;20431;-72
2023/10/18 10:01:27;;;;;;;17.07;12.33;;;14.60;99.90;;;;;;5066097;28;20503;-72
2023/10/18 10:03:56;;;;;;;16.67;12.47;;;14.60;99.90;;;;;;5065278;28;20414;-72
2023/10/18 10:06:26;;;;;;;13.97;11.60;;;15.00;99.90;;;;;;5070015;28;20434;-72
2023/10/18 10:09:12;;;;;;;14.97;12.30;;;15.80;99.90;;;;;;5070134;28;20411;-72
2023/10/18 10:11:43;;;;;;;12.13;10.20;;;16.40;99.90;;;;;;5070209;28;20485;-71
2023/10/18 10:14:15;;;;;;;12.43;11.13;;;16.80;99.10;;;;;;5070018;28;20415;-71
2023/10/18 10:16:52;;;;;;;14.93;11.30;;;17.40;96.20;;;;;;5069951;28;20430;-71
2023/10/18 10:19:24;;;;;;;12.27;10.50;;;17.70;95.30;;;;;;5068971;28;20849;-72
2023/10/18 10:21:50;;;;;;;14.70;12.10;;;18.60;94.20;;;;;;5070022;28;20434;-73
2023/10/18 10:24:29;;;;;;;16.13;11.80;;;18.80;92.30;;;;;;5069818;28;20416;-73
2023/10/18 10:27:21;;;;;;;15.30;11.60;;;19.00;90.40;;;;;;5068364;28;20441;-73
2023/10/18 10:29:56;;;;;;;13.90;11.43;;;18.00;90.40;;;;;;5069826;28;20433;-73
2023/10/18 10:32:23;;;;;;;13.73;10.20;;;17.60;92.50;;;;;;5067894;28;20514;-73
2023/10/18 10:35:07;;;;;;;12.93;9.60;;;17.40;92.50;;;;;;5067984;28;20436;-72
2023/10/18 10:37:36;;;;;;;11.77;10.03;;;17.70;93.60;;;;;;5068085;28;20448;-72
2023/10/18 10:40:30;;;;;;;13.07;10.50;;;18.30;92.30;;;;;;5069331;28;20968;-73
2023/10/18 10:43:03;;;;;;;12.73;9.93;;;18.70;90.00;;;;;;5067763;28;20432;-73
2023/10/18 10:45:32;;;;;;;12.47;10.87;;;18.70;90.10;;;;;;5068005;28;20420;-73
2023/10/18 10:48:28;;;;;;;13.37;9.73;;;18.40;90.10;;;;;;5069316;28;20931;-74
2023/10/18 10:51:22;;;;;;;12.23;10.17;;;18.50;90.00;;;;;;5069420;28;20426;-73
2023/10/18 10:53:57;;;;;;;13.10;10.17;;;18.90;90.00;;;;;;5069306;28;20414;-73
2023/10/18 10:56:30;;;;;;;13.07;10.97;;;18.40;90.70;;;;;;5069192;28;20477;-73
2023/10/18 11:01:39;;;;;;;11.00;9.10;;;18.00;91.30;;;;;;5069297;28;20763;-73
2023/10/18 11:04:24;;;;;;;12.73;9.90;;;18.50;92.50;;;;;;5069512;28;20417;-71
2023/10/18 11:06:53;;;;;;;17.17;10.13;;;18.40;91.30;;;;;;5068918;28;20494;-72
2023/10/18 11:09:19;;;;;;;14.10;9.37;;;18.10;91.30;;;;;;5067648;28;20430;-72
2023/10/18 11:11:45;;;;;;;15.83;10.63;;;17.50;92.50;;;;;;5069120;28;20432;-72
2023/10/18 11:14:22;;;;;;;15.33;10.00;;;17.10;93.20;;;;;;5069163;28;20285;-72
2023/10/18 11:16:53;;;;;;;14.00;10.17;;;16.90;94.00;;;;;;5066488;28;20440;-72
2023/10/18 11:19:30;;;;;;;15.30;10.60;;;16.60;94.90;;;;;;5068686;28;20475;-72
2023/10/18 11:21:58;;;;;;;13.70;10.13;;;16.40;96.20;;;;;;5067107;28;20427;-72
2023/10/18 11:24:25;;;;;;;13.77;10.67;;;16.20;97.00;;;;;;5068925;28;20535;-72
2023/10/18 11:26:51;;;;;;;16.50;10.80;;;15.80;98.30;;;;;;5068579;28;20463;-73
2023/10/18 11:29:24;;;;;;;12.87;10.40;;;15.60;99.90;;;;;;5068684;28;20424;-72
2023/10/18 11:31:55;;;;;;;13.03;10.50;;;15.40;99.90;;;;;;5051032;28;20436;-73
2023/10/18 11:34:22;;;;;;;11.87;9.03;;;15.20;99.90;;;;;;5068457;28;20453;-73
2023/10/18 11:36:49;;;;;;;17.00;10.30;;;15.10;99.90;;;;;;5068351;28;20472;-73
2023/10/18 11:39:18;;;;;;;18.03;10.20;;;15.00;99.90;;;;;;5068294;28;20968;-74
2023/10/18 11:41:49;;;;;;;19.23;9.23;;;15.00;99.90;;;;;;5068312;28;20420;-71
2023/10/18 11:44:26;;;;;;;11.73;8.10;;;15.10;99.90;;;;;;5066595;28;20435;-71
2023/10/18 11:46:56;;;;;;;11.37;8.73;;;15.10;99.90;;;;;;5068161;28;20502;-72
2023/10/18 11:49:32;;;;;;;12.40;8.40;;;15.00;99.90;;;;;;5068393;28;20423;-71
2023/10/18 11:51:58;;;;;;;15.20;9.87;;;15.10;99.90;;;;;;5068204;28;20422;-70
2023/10/18 11:54:34;;;;;;;11.43;9.00;;;15.00;99.90;;;;;;5068109;28;20472;-72
2023/10/18 11:57:07;;;;;;;9.40;7.80;;;15.00;99.90;;;;;;5068012;28;20205;-71
2023/10/18 11:59:53;;;;;;;10.00;7.80;;;15.00;99.90;;;;;;5067935;28;20466;-71
2023/10/18 12:02:19;;;;;;;9.67;8.20;;;14.90;99.90;;;;;;5066763;28;20886;-71
2023/10/18 12:04:48;;;;;;;12.90;8.20;;;14.80;99.90;;;;;;5067872;28;20455;-71
2023/10/18 12:07:14;;;;;;;12.90;8.30;;;14.80;99.90;;;;;;5065911;28;20643;-73
2023/10/18 12:09:46;;;;;;;11.90;8.03;;;14.70;99.90;;;;;;5067641;28;20423;-73
2023/10/18 12:12:19;;;;;;;11.53;7.93;;;14.60;99.90;;;;;;5067713;28;20422;-73
2023/10/18 12:14:45;;;;;;;15.10;7.70;;;14.50;99.90;;;;;;5067714;28;20469;-72
2023/10/18 12:17:15;;;;;;;13.73;9.07;;;14.50;99.90;;;;;;5067655;28;20446;-73
2023/10/18 12:19:42;;;;;;;12.73;7.80;;;14.40;99.90;;;;;;5067575;28;20888;-72
2023/10/18 12:22:15;;;;;;;13.80;7.53;;;14.40;99.90;;;;;;5067568;28;20954;-73
2023/10/18 12:24:41;;;;;;;13.20;8.23;;;14.50;99.90;;;;;;5067435;28;20916;-73
2023/10/18 12:29:52;;;;;;;12.50;7.33;;;14.40;99.90;;;;;;5066273;28;20476;-73
2023/10/18 12:32:30;;;;;;;13.30;8.33;;;14.40;99.90;;;;;;5067221;28;20429;-73
2023/10/18 12:34:56;;;;;;;13.10;8.77;;;14.40;99.90;;;;;;5065998;28;20557;-73
2023/10/18 12:37:25;;;;;;;9.27;8.00;;;14.30;99.90;;;;;;5067202;28;20492;-73
2023/10/18 12:39:51;;;;;;;13.50;7.97;;;14.40;99.90;;;;;;5067266;28;20778;-73
2023/10/18 12:42:21;;;;;;;14.40;9.40;;;14.40;99.90;;;;;;5067261;28;20469;-73
2023/10/18 12:44:47;;;;;;;10.77;7.83;;;14.50;99.90;;;;;;5067256;28;20434;-73
2023/10/18 12:47:19;;;;;;;10.83;8.17;;;14.50;99.90;;;;;;5067038;28;20437;-73
2023/10/18 12:49:51;;;;;;;10.80;7.80;;;14.50;99.90;;;;;;5065801;28;20275;-73
2023/10/18 12:55:57;;;;;;;10.93;7.73;;;14.50;99.90;;;;;;5066976;28;20777;-73
2023/10/18 12:57:51;;;;;;;17.63;8.10;;;14.50;99.90;;;;;;5059284;28;20462;-71
2023/10/18 13:00:17;;;;;;;14.40;8.50;;;14.60;99.90;;;;;;5066956;28;20917;-72
2023/10/18 13:03:04;;;;;;;9.57;8.17;;;14.50;99.90;;;;;;5066729;28;20449;-73
2023/10/18 13:05:43;;;;;;;13.67;8.63;;;14.50;99.90;;;;;;5066989;28;20584;-73
2023/10/18 13:08:22;;;;;;;14.03;7.77;;;14.50;99.90;;;;;;5066950;28;20451;-73
2023/10/18 13:13:30;;;;;;;10.97;7.97;;;14.30;99.90;;;;;;5065390;28;20417;-71
2023/10/18 13:15:57;;;;;;;10.80;7.90;;;14.20;99.90;;;;;;5066812;28;20442;-72
2023/10/18 13:18:26;;;;;;;10.93;8.40;;;14.20;99.90;;;;;;5066729;28;20539;-72
2023/10/18 13:20:54;;;;;;;10.50;8.47;;;14.20;99.90;;;;;;5066568;28;20468;-73
2023/10/18 13:23:27;;;;;;;13.33;8.53;;;14.10;99.90;;;;;;5066606;28;20419;-73
2023/10/18 13:25:53;;;;;;;19.73;9.00;;;14.10;99.90;;;;;;5048700;28;20423;-73
2023/10/18 13:28:26;;;;;;;12.27;8.17;;;14.10;99.90;;;;;;5065106;28;20422;-73
2023/10/18 13:30:55;;;;;;;13.33;8.30;;;14.00;99.90;;;;;;5066993;28;20429;-73
2023/10/18 13:33:21;;;;;;;12.87;8.07;;;14.00;99.90;;;;;;5066587;28;20440;-72
2023/10/18 13:35:49;;;;;;;13.37;8.73;;;14.00;99.90;;;;;;5066890;28;20425;-73
2023/10/18 13:38:15;;;;;;;12.50;8.37;;;13.90;99.90;;;;;;5065585;28;20676;-73
2023/10/18 13:40:43;;;;;;;11.43;8.70;;;13.90;99.90;;;;;;5068861;28;20478;-73
2023/10/18 13:43:09;;;;;;;16.90;8.90;;;13.80;99.90;;;;;;5070874;28;20405;-73
2023/10/18 13:45:35;;;;;;;16.60;8.90;;;13.80;99.90;;;;;;5069214;28;20424;-73